createdAt,value
2019-02-12T00:01:31.825Z,12.50
2019-02-12T00:04:02.788Z,12.50
2019-02-12T00:06:33.982Z,12.40
2019-02-12T00:09:07.211Z,12.40
2019-02-12T00:11:38.281Z,12.60
2019-02-12T00:14:09.265Z,12.60
2019-02-12T00:16:40.366Z,12.70
2019-02-12T00:19:11.443Z,12.60
2019-02-12T00:21:42.656Z,12.60
2019-02-12T00:24:13.722Z,12.70
2019-02-12T00:26:48.988Z,12.70
2019-02-12T00:29:19.996Z,12.50
2019-02-12T00:31:52.459Z,12.40
2019-02-12T00:34:23.682Z,12.40
2019-02-12T00:36:54.686Z,12.40
2019-02-12T00:39:25.799Z,12.50
2019-02-12T00:49:24.878Z,12.30
2019-02-12T00:51:55.499Z,12.30
2019-02-12T00:54:26.761Z,12.30
2019-02-12T00:56:57.395Z,12.30
2019-02-12T00:59:29.470Z,12.10
2019-02-12T01:02:00.317Z,12.10
2019-02-12T01:04:31.711Z,12.20
2019-02-12T01:07:02.981Z,12.10
2019-02-12T01:09:34.250Z,12.10
2019-02-12T01:12:05.565Z,12.00
2019-02-12T01:14:36.844Z,12.00
2019-02-12T01:17:07.864Z,12.00
2019-02-12T01:19:39.004Z,11.90
2019-02-12T01:22:10.016Z,11.90
2019-02-12T01:24:41.153Z,11.80
2019-02-12T01:27:16.121Z,11.70
2019-02-12T01:29:47.220Z,11.60
2019-02-12T01:32:18.399Z,11.60
2019-02-12T01:34:49.553Z,11.60
2019-02-12T01:37:20.602Z,11.60
2019-02-12T01:39:51.261Z,11.60
2019-02-12T01:42:22.435Z,11.60
2019-02-12T01:44:53.108Z,11.60
2019-02-12T01:47:24.333Z,11.70
2019-02-12T01:49:55.476Z,11.80
2019-02-12T01:52:26.319Z,11.70
2019-02-12T01:54:57.059Z,11.70
2019-02-12T01:57:28.347Z,11.60
2019-02-12T01:59:59.469Z,11.70
2019-02-12T02:02:30.834Z,11.70
2019-02-12T02:05:01.917Z,11.70
2019-02-12T02:07:33.306Z,11.60
2019-02-12T02:10:04.826Z,11.60
2019-02-12T02:12:35.853Z,11.60
2019-02-12T02:15:08.272Z,11.60
2019-02-12T02:17:39.257Z,11.70
2019-02-12T02:20:11.106Z,11.60
2019-02-12T02:22:42.163Z,11.60
2019-02-12T02:25:13.223Z,11.60
2019-02-12T02:27:44.278Z,11.70
2019-02-12T02:30:16.610Z,11.80
2019-02-12T02:32:47.614Z,11.80
2019-02-12T02:35:18.685Z,11.70
2019-02-12T02:37:49.642Z,11.60
2019-02-12T02:40:20.699Z,11.60
2019-02-12T02:42:51.293Z,11.60
2019-02-12T02:45:27.565Z,11.50
2019-02-12T02:47:58.246Z,11.60
2019-02-12T02:50:29.366Z,11.50
2019-02-12T02:53:00.324Z,11.50
2019-02-12T02:55:31.226Z,11.50
2019-02-12T02:58:02.474Z,11.50
2019-02-12T03:00:33.678Z,11.50
2019-02-12T03:03:04.643Z,11.40
2019-02-12T03:05:35.783Z,11.40
2019-02-12T03:08:06.403Z,11.40
2019-02-12T03:10:37.779Z,11.30
2019-02-12T03:13:08.857Z,11.30
2019-02-12T03:15:40.067Z,11.40
2019-02-12T03:18:11.105Z,11.30
2019-02-12T03:20:42.344Z,11.30
2019-02-12T03:23:13.607Z,11.40
2019-02-12T03:25:44.755Z,11.40
2019-02-12T03:28:19.265Z,11.30
2019-02-12T03:30:50.116Z,11.30
2019-02-12T03:33:21.126Z,11.40
2019-02-12T03:35:51.984Z,11.40
2019-02-12T03:38:46.959Z,11.50
2019-02-12T03:41:18.236Z,11.60
2019-02-12T03:43:49.685Z,11.60
2019-02-12T03:46:20.817Z,11.50
2019-02-12T03:48:51.937Z,11.60
2019-02-12T03:51:22.919Z,11.50
2019-02-12T03:53:53.571Z,11.50
2019-02-12T03:56:24.567Z,11.50
2019-02-12T03:58:55.586Z,11.40
2019-02-12T04:01:26.724Z,11.30
2019-02-12T04:03:57.707Z,11.30
2019-02-12T04:06:28.863Z,11.30
2019-02-12T04:09:06.122Z,11.30
2019-02-12T04:11:37.198Z,11.20
2019-02-12T04:14:08.285Z,11.10
2019-02-12T04:16:39.358Z,11.10
2019-02-12T04:19:10.397Z,11.00
2019-02-12T04:21:41.283Z,11.00
2019-02-12T04:24:12.383Z,10.90
2019-02-12T04:26:43.370Z,10.90
2019-02-12T04:29:14.354Z,10.90
2019-02-12T04:31:45.451Z,11.00
2019-02-12T04:34:16.524Z,11.00
2019-02-12T04:36:47.823Z,11.00
2019-02-12T04:39:20.367Z,11.00
2019-02-12T04:41:51.477Z,11.00
2019-02-12T04:44:25.754Z,10.90
2019-02-12T04:46:56.834Z,10.90
2019-02-12T04:49:27.796Z,10.90
2019-02-12T04:51:58.489Z,10.90
2019-02-12T04:54:29.552Z,10.90
2019-02-12T04:57:00.294Z,10.80
2019-02-12T04:59:31.403Z,10.80
2019-02-12T05:02:02.563Z,10.90
2019-02-12T05:04:33.588Z,11.00
2019-02-12T05:07:04.611Z,10.90
2019-02-12T05:09:36.585Z,11.00
2019-02-12T05:12:09.922Z,11.00
2019-02-12T05:14:41.408Z,10.90
2019-02-12T05:17:12.478Z,10.90
2019-02-12T05:19:43.702Z,10.80
2019-02-12T05:22:14.760Z,10.70
2019-02-12T05:24:45.960Z,10.50
2019-02-12T05:27:17.066Z,10.40
2019-02-12T05:29:48.013Z,10.30
2019-02-12T05:32:19.125Z,10.30
2019-02-12T05:34:49.994Z,10.30
2019-02-12T05:37:20.831Z,10.40
2019-02-12T05:39:51.482Z,10.40
2019-02-12T05:42:22.493Z,10.50
2019-02-12T05:44:53.628Z,10.50
2019-02-12T05:47:24.807Z,10.50
2019-02-12T05:49:55.483Z,10.50
2019-02-12T05:52:26.429Z,10.60
2019-02-12T05:54:57.052Z,10.80
2019-02-12T05:57:28.174Z,10.80
2019-02-12T05:59:58.813Z,10.80
2019-02-12T06:02:29.969Z,10.70
2019-02-12T06:05:01.059Z,10.60
2019-02-12T06:07:32.015Z,10.60
2019-02-12T06:10:03.150Z,10.50
2019-02-12T06:12:34.300Z,10.50
2019-02-12T06:15:05.812Z,10.50
2019-02-12T06:17:36.893Z,10.40
2019-02-12T06:20:08.268Z,10.30
2019-02-12T06:22:39.338Z,10.20
2019-02-12T06:25:10.494Z,10.30
2019-02-12T06:27:41.470Z,10.30
2019-02-12T06:30:12.668Z,10.30
2019-02-12T06:32:44.600Z,10.40
2019-02-12T06:35:15.720Z,10.40
2019-02-12T06:37:46.413Z,10.40
2019-02-12T06:40:17.697Z,10.30
2019-02-12T06:42:49.045Z,10.30
2019-02-12T06:45:20.075Z,10.30
2019-02-12T06:47:50.839Z,10.30
2019-02-12T06:50:21.928Z,10.40
2019-02-12T06:52:52.824Z,10.40
2019-02-12T06:55:23.829Z,10.50
2019-02-12T06:57:54.472Z,10.50
2019-02-12T07:00:25.362Z,10.50
2019-02-12T07:03:16.787Z,10.50
2019-02-12T07:06:12.076Z,10.60
2019-02-12T07:09:16.245Z,10.60
2019-02-12T07:12:17.456Z,10.50
2019-02-12T07:15:06.605Z,10.70
2019-02-12T07:18:14.221Z,10.70
2019-02-12T07:21:24.410Z,10.60
2019-02-12T07:24:45.113Z,10.60
2019-02-12T07:27:42.910Z,10.70
2019-02-12T07:30:47.919Z,10.70
2019-02-12T07:34:02.676Z,10.70
2019-02-12T07:37:04.753Z,10.70
2019-02-12T07:40:11.525Z,10.70
2019-02-12T07:43:35.688Z,10.70
2019-02-12T07:46:42.385Z,10.90
2019-02-12T07:49:42.222Z,10.90
2019-02-12T07:52:26.564Z,10.90
2019-02-12T07:55:38.466Z,11.00
2019-02-12T07:58:46.019Z,11.10
2019-02-12T08:01:44.437Z,11.20
2019-02-12T08:05:05.645Z,11.30
2019-02-12T08:08:19.111Z,11.50
2019-02-12T08:11:04.095Z,11.70
2019-02-12T08:13:52.937Z,11.70
2019-02-12T08:16:43.520Z,11.70
2019-02-12T08:20:13.855Z,11.80
2019-02-12T08:23:08.385Z,11.80
2019-02-12T08:25:59.090Z,11.90
2019-02-12T08:29:10.114Z,12.00
2019-02-12T08:31:59.295Z,12.00
2019-02-12T08:34:57.319Z,11.80
2019-02-12T08:37:48.771Z,11.80
2019-02-12T08:41:15.380Z,12.10
2019-02-12T08:44:13.462Z,12.20
2019-02-12T08:47:21.013Z,12.30
2019-02-12T08:50:26.943Z,12.40
2019-02-12T08:53:50.036Z,12.50
2019-02-12T08:56:31.151Z,12.50
2019-02-12T08:59:38.541Z,12.60
2019-02-12T09:03:02.866Z,12.90
2019-02-12T09:06:07.976Z,13.10
2019-02-12T09:09:09.066Z,13.30
2019-02-12T09:12:18.706Z,13.30
2019-02-12T09:15:31.828Z,13.30
2019-02-12T09:18:21.400Z,13.30
2019-02-12T09:21:14.354Z,13.30
2019-02-12T09:24:17.686Z,13.40
2019-02-12T09:27:47.567Z,13.10
2019-02-12T09:30:34.792Z,13.10
2019-02-12T09:34:08.749Z,12.90
2019-02-12T09:37:09.446Z,12.70
2019-02-12T09:40:19.422Z,13.00
2019-02-12T09:43:41.955Z,13.10
2019-02-12T09:46:29.914Z,13.10
2019-02-12T09:49:26.768Z,13.30
2019-02-12T09:52:18.537Z,13.30
2019-02-12T09:55:24.062Z,13.10
2019-02-12T09:58:20.427Z,13.10
2019-02-12T10:01:00.791Z,13.40
2019-02-12T10:04:11.860Z,13.60
2019-02-12T10:07:20.077Z,13.60
2019-02-12T10:10:20.916Z,13.80
2019-02-12T10:13:20.911Z,14.10
2019-02-12T10:16:30.140Z,14.20
2019-02-12T10:19:29.784Z,14.30
2019-02-12T10:22:38.715Z,14.10
2019-02-12T10:25:26.409Z,14.10
2019-02-12T10:28:48.763Z,13.80
2019-02-12T10:31:30.561Z,13.70
2019-02-12T10:34:01.846Z,13.60
2019-02-12T10:36:33.166Z,13.60
2019-02-12T10:39:05.242Z,13.60
2019-02-12T10:41:36.291Z,13.70
2019-02-12T10:44:07.982Z,13.80
2019-02-12T10:46:39.175Z,13.80
2019-02-12T10:49:10.350Z,13.70
2019-02-12T10:51:47.821Z,13.70
2019-02-12T10:54:18.908Z,13.70
2019-02-12T10:56:50.906Z,13.80
2019-02-12T10:59:22.393Z,13.90
2019-02-12T11:01:53.545Z,13.70
2019-02-12T11:04:24.408Z,13.70
2019-02-12T11:06:55.452Z,13.90
2019-02-12T11:09:26.748Z,13.90
2019-02-12T11:11:57.609Z,14.00
2019-02-12T11:14:28.823Z,13.90
2019-02-12T11:16:59.706Z,13.90
2019-02-12T11:19:30.887Z,13.90
2019-02-12T11:22:01.828Z,14.00
2019-02-12T11:24:35.644Z,13.80
2019-02-12T11:27:05.857Z,13.90
2019-02-12T11:29:37.312Z,14.00
2019-02-12T11:32:08.371Z,14.00
2019-02-12T11:34:39.812Z,14.20
2019-02-12T11:37:11.118Z,14.30
2019-02-12T11:39:42.177Z,14.50
2019-02-12T11:42:13.244Z,14.50
2019-02-12T11:44:44.482Z,14.50
2019-02-12T11:47:15.778Z,14.60
2019-02-12T11:49:46.811Z,14.70
2019-02-12T11:52:17.981Z,14.70
2019-02-12T11:54:53.069Z,14.70
2019-02-12T11:57:24.100Z,14.60
2019-02-12T11:59:55.054Z,14.70
2019-02-12T12:02:29.843Z,14.90
2019-02-12T12:05:00.547Z,15.00
2019-02-12T12:07:31.604Z,15.10
2019-02-12T12:10:02.689Z,15.10
2019-02-12T12:12:33.580Z,15.10
2019-02-12T12:15:04.848Z,15.10
2019-02-12T12:17:36.074Z,15.20
2019-02-12T12:20:07.574Z,15.50
2019-02-12T12:22:39.049Z,15.40
2019-02-12T12:25:10.379Z,15.40
2019-02-12T12:27:41.707Z,15.40
2019-02-12T12:30:13.396Z,15.40
2019-02-12T12:32:44.410Z,15.20
2019-02-12T12:35:19.062Z,15.30
2019-02-12T12:37:50.034Z,15.60
2019-02-12T12:40:21.228Z,15.60
2019-02-12T12:42:52.140Z,15.50
2019-02-12T12:45:23.352Z,15.40
2019-02-12T12:47:54.130Z,15.20
2019-02-12T12:50:25.209Z,15.10
2019-02-12T12:52:56.212Z,15.20
2019-02-12T12:55:27.294Z,15.40
2019-02-12T12:58:01.531Z,15.70
2019-02-12T13:00:32.928Z,15.50
2019-02-12T13:03:03.996Z,15.70
2019-02-12T13:05:35.147Z,15.80
2019-02-12T13:08:07.278Z,15.50
2019-02-12T13:10:38.883Z,15.70
2019-02-12T13:13:10.884Z,15.70
2019-02-12T13:15:41.961Z,15.70
2019-02-12T13:18:13.143Z,16.00
2019-02-12T13:20:44.275Z,15.80
2019-02-12T13:23:15.493Z,15.60
2019-02-12T13:25:46.598Z,15.60
2019-02-12T13:28:17.974Z,15.70
2019-02-12T13:30:50.940Z,15.60
2019-02-12T13:33:22.223Z,15.60
2019-02-12T13:35:52.915Z,15.70
2019-02-12T13:38:24.030Z,15.80
2019-02-12T13:40:55.433Z,15.60
2019-02-12T13:43:27.140Z,15.60
2019-02-12T13:45:58.164Z,15.60
2019-02-12T13:48:29.665Z,16.50
2019-02-12T13:51:00.559Z,18.00
2019-02-12T13:53:31.766Z,19.40
2019-02-12T13:56:03.012Z,21.30
2019-02-12T13:58:34.321Z,23.00
2019-02-12T14:01:05.508Z,21.20
2019-02-12T14:03:36.575Z,19.60
2019-02-12T14:06:07.925Z,19.30
2019-02-12T14:08:39.040Z,19.10
2019-02-12T14:11:10.204Z,18.20
2019-02-12T14:13:41.187Z,17.80
2019-02-12T14:16:12.213Z,18.20
2019-02-12T14:18:43.375Z,18.90
2019-02-12T14:21:14.616Z,18.50
2019-02-12T14:23:45.858Z,19.20
2019-02-12T14:26:17.553Z,19.50
2019-02-12T14:28:48.751Z,18.80
2019-02-12T14:31:19.903Z,17.40
2019-02-12T14:33:51.884Z,17.30
2019-02-12T14:36:28.112Z,17.70
2019-02-12T14:38:58.870Z,17.40
2019-02-12T14:41:30.058Z,17.40
2019-02-12T14:44:01.102Z,17.20
2019-02-12T14:46:32.147Z,17.50
2019-02-12T14:49:03.230Z,17.60
2019-02-12T14:51:35.024Z,17.40
2019-02-12T14:54:07.302Z,17.40
2019-02-12T14:56:38.641Z,17.30
2019-02-12T14:59:09.943Z,17.40
2019-02-12T15:01:41.088Z,17.10
2019-02-12T15:04:20.777Z,16.80
2019-02-12T15:06:52.395Z,16.60
2019-02-12T15:09:23.657Z,16.50
2019-02-12T15:11:54.286Z,16.40
2019-02-12T15:14:25.436Z,16.20
2019-02-12T15:16:56.196Z,16.10
2019-02-12T15:19:27.584Z,16.10
2019-02-12T15:21:58.683Z,16.20
2019-02-12T15:24:29.697Z,16.30
2019-02-12T15:27:00.689Z,16.30
2019-02-12T15:29:32.807Z,16.40
2019-02-12T15:32:03.894Z,16.60
2019-02-12T15:34:36.343Z,16.40
2019-02-12T15:37:07.734Z,16.30
2019-02-12T15:39:38.960Z,15.90
2019-02-12T15:42:10.468Z,16.00
2019-02-12T15:44:41.528Z,16.30
2019-02-12T15:47:13.801Z,16.30
2019-02-12T15:49:45.386Z,16.30
2019-02-12T15:52:16.488Z,16.30
2019-02-12T15:54:47.500Z,16.30
2019-02-12T15:57:20.232Z,16.20
2019-02-12T15:59:54.051Z,15.80
2019-02-12T16:02:25.363Z,15.60
2019-02-12T16:04:56.172Z,15.50
2019-02-12T16:07:27.256Z,15.30
2019-02-12T16:09:58.183Z,15.20
2019-02-12T16:12:29.471Z,15.30
2019-02-12T16:15:01.515Z,15.20
2019-02-12T16:17:35.438Z,15.10
2019-02-12T16:20:07.987Z,15.20
2019-02-12T16:22:39.174Z,15.00
2019-02-12T16:25:10.721Z,15.10
2019-02-12T16:27:42.145Z,15.00
2019-02-12T16:30:15.434Z,15.00
2019-02-12T16:32:46.860Z,15.00
2019-02-12T16:35:18.414Z,15.00
2019-02-12T16:37:49.853Z,14.90
2019-02-12T16:40:23.223Z,14.90
2019-02-12T16:42:54.713Z,14.80
2019-02-12T16:45:29.933Z,14.80
2019-02-12T16:48:00.714Z,14.80
2019-02-12T16:50:31.997Z,14.80
2019-02-12T16:53:03.314Z,14.80
2019-02-12T16:55:34.917Z,14.70
2019-02-12T16:58:06.691Z,14.80
2019-02-12T17:00:38.005Z,14.70
2019-02-12T17:03:09.313Z,14.50
2019-02-12T17:05:40.538Z,14.50
2019-02-12T17:08:11.631Z,14.40
2019-02-12T17:10:44.371Z,14.40
2019-02-12T17:13:15.728Z,14.50
2019-02-12T17:15:47.316Z,14.40
2019-02-12T17:18:18.539Z,14.30
2019-02-12T17:20:50.214Z,14.40
2019-02-12T17:23:21.394Z,14.40
2019-02-12T17:25:52.908Z,14.30
2019-02-12T17:28:24.578Z,14.30
2019-02-12T17:30:55.487Z,14.20
2019-02-12T17:33:26.940Z,14.20
2019-02-12T17:35:58.041Z,14.10
2019-02-12T17:38:30.360Z,14.10
2019-02-12T17:41:01.277Z,14.10
2019-02-12T17:43:32.546Z,14.00
2019-02-12T17:46:03.798Z,14.00
2019-02-12T17:48:35.096Z,14.00
2019-02-12T17:51:07.008Z,14.00
2019-02-12T17:53:38.458Z,13.90
2019-02-12T17:56:09.759Z,13.90
2019-02-12T17:58:41.113Z,13.90
2019-02-12T18:01:13.044Z,13.90
2019-02-12T18:03:44.264Z,13.90
2019-02-12T18:06:15.530Z,13.90
2019-02-12T18:08:47.165Z,13.80
2019-02-12T18:11:18.827Z,13.80
2019-02-12T18:13:50.092Z,13.90
2019-02-12T18:16:21.140Z,13.90
2019-02-12T18:18:52.448Z,13.90
2019-02-12T18:21:23.554Z,13.80
2019-02-12T18:23:54.357Z,13.80
2019-02-12T18:26:32.934Z,13.70
2019-02-12T18:28:58.068Z,13.70
2019-02-12T18:31:29.526Z,13.70
2019-02-12T18:34:00.463Z,13.70
2019-02-12T18:36:31.569Z,13.70
2019-02-12T18:39:06.728Z,13.70
2019-02-12T18:41:41.963Z,13.60
2019-02-12T18:44:13.131Z,13.70
2019-02-12T18:46:44.166Z,13.70
2019-02-12T18:49:15.440Z,13.70
2019-02-12T18:51:46.791Z,13.60
2019-02-12T18:54:18.485Z,13.60
2019-02-12T18:56:50.226Z,13.60
2019-02-12T18:59:21.451Z,13.60
2019-02-12T19:01:52.829Z,13.60
2019-02-12T19:04:24.163Z,13.60
2019-02-12T19:06:55.392Z,13.50
2019-02-12T19:09:26.706Z,13.50
2019-02-12T19:11:57.920Z,13.50
2019-02-12T19:14:29.182Z,13.40
2019-02-12T19:16:59.887Z,13.40
2019-02-12T19:19:31.367Z,13.30
2019-02-12T19:22:03.068Z,13.30
2019-02-12T19:24:34.244Z,13.30
2019-02-12T19:27:05.872Z,13.30
2019-02-12T19:29:37.075Z,13.30
2019-02-12T19:32:08.268Z,13.30
2019-02-12T19:34:39.526Z,13.30
2019-02-12T19:37:11.091Z,13.30
2019-02-12T19:39:42.334Z,13.30
2019-02-12T19:42:13.586Z,13.30
2019-02-12T19:44:47.865Z,13.30
2019-02-12T19:47:18.893Z,13.30
2019-02-12T19:49:50.171Z,13.30
2019-02-12T19:52:21.223Z,13.30
2019-02-12T19:54:52.933Z,13.30
2019-02-12T19:57:24.296Z,13.30
2019-02-12T19:59:55.058Z,13.40
2019-02-12T20:02:26.022Z,13.30
2019-02-12T20:04:56.711Z,13.30
2019-02-12T20:07:27.958Z,13.30
2019-02-12T20:09:59.182Z,13.30
2019-02-12T20:12:30.230Z,13.30
2019-02-12T20:15:00.983Z,13.30
2019-02-12T20:17:33.114Z,13.20
2019-02-12T20:20:04.427Z,13.20
2019-02-12T20:22:35.580Z,13.20
2019-02-12T20:25:06.752Z,13.30
2019-02-12T20:27:37.954Z,13.20
2019-02-12T20:30:10.841Z,13.20
2019-02-12T20:32:42.467Z,13.20
2019-02-12T20:35:17.224Z,13.20
2019-02-12T20:37:48.798Z,13.30
2019-02-12T20:40:20.169Z,13.20
2019-02-12T20:42:51.244Z,13.10
2019-02-12T20:45:22.659Z,13.00
2019-02-12T20:47:53.485Z,12.90
2019-02-12T20:50:25.140Z,12.80
2019-02-12T20:52:55.860Z,12.80
2019-02-12T20:55:26.897Z,12.70
2019-02-12T20:57:57.531Z,12.70
2019-02-12T21:00:29.590Z,12.70
2019-02-12T21:03:00.207Z,12.60
2019-02-12T21:05:31.462Z,12.60
2019-02-12T21:08:02.609Z,12.60
2019-02-12T21:10:34.186Z,12.60
2019-02-12T21:13:05.307Z,12.50
2019-02-12T21:15:37.522Z,12.50
2019-02-12T21:18:08.501Z,12.40
2019-02-12T21:20:39.490Z,12.40
2019-02-12T21:23:10.799Z,12.40
2019-02-12T21:25:41.745Z,12.40
2019-02-12T21:28:13.084Z,12.40
2019-02-12T21:30:44.739Z,12.40
2019-02-12T21:33:16.259Z,12.30
2019-02-12T21:35:47.662Z,12.30
2019-02-12T21:38:20.239Z,12.30
2019-02-12T21:40:54.745Z,12.20
2019-02-12T21:43:25.950Z,12.20
2019-02-12T21:45:57.029Z,12.20
2019-02-12T21:48:28.111Z,12.20
2019-02-12T21:50:58.941Z,12.20
2019-02-12T21:53:30.056Z,12.30
2019-02-12T21:56:01.666Z,12.20
2019-02-12T21:58:32.953Z,12.20
2019-02-12T22:01:03.972Z,12.20
2019-02-12T22:03:34.828Z,12.10
2019-02-12T22:06:05.990Z,12.10
2019-02-12T22:08:36.972Z,12.00
2019-02-12T22:11:08.164Z,12.00
2019-02-12T22:13:39.021Z,12.00
2019-02-12T22:16:10.301Z,12.00
2019-02-12T22:18:41.452Z,12.00
2019-02-12T22:21:12.631Z,12.00
2019-02-12T22:23:44.102Z,12.10
2019-02-12T22:26:15.315Z,12.00
2019-02-12T22:28:46.323Z,12.10
2019-02-12T22:31:17.579Z,12.20
2019-02-12T22:33:48.767Z,12.20
2019-02-12T22:36:19.784Z,12.20
2019-02-12T22:38:51.284Z,12.10
2019-02-12T22:41:22.863Z,12.10
2019-02-12T22:43:53.934Z,12.10
2019-02-12T22:46:26.106Z,12.10
2019-02-12T22:48:56.805Z,12.20
2019-02-12T22:51:28.159Z,12.40
2019-02-12T22:53:59.200Z,12.40
2019-02-12T22:56:30.471Z,12.30
2019-02-12T22:59:01.713Z,12.20
2019-02-12T23:01:39.930Z,12.10
2019-02-12T23:04:11.059Z,12.00
2019-02-12T23:06:42.167Z,11.90
2019-02-12T23:09:17.642Z,11.80
2019-02-12T23:11:48.692Z,11.80
2019-02-12T23:14:19.793Z,11.70
2019-02-12T23:16:51.049Z,11.70
2019-02-12T23:19:22.115Z,11.60
2019-02-12T23:21:53.231Z,11.50
2019-02-12T23:24:27.255Z,11.40
2019-02-12T23:26:58.655Z,11.30
2019-02-12T23:29:29.827Z,11.20
2019-02-12T23:32:00.986Z,11.20
2019-02-12T23:34:32.023Z,11.20
2019-02-12T23:37:03.041Z,11.20
2019-02-12T23:39:36.013Z,11.20
2019-02-12T23:42:07.496Z,11.30
2019-02-12T23:44:38.612Z,11.30
2019-02-12T23:47:09.785Z,11.40
2019-02-12T23:49:40.988Z,11.30
2019-02-12T23:52:12.245Z,11.40
2019-02-12T23:54:43.206Z,11.50
2019-02-12T23:57:14.235Z,11.50
2019-02-12T23:59:45.193Z,11.40
